TimeCEST,TemperatureF,Dew PointF,Humidity,Sea Level PressureIn,VisibilityMPH,Wind Direction,Wind SpeedMPH,Gust SpeedMPH,PrecipitationIn,Events,Conditions,WindDirDegrees,DateUTC
12:15 AM,73.4,59.0,61,30.01,-9999.0,SSW,3.5,-,N/A,,Clear,210,2013-06-17 22:15:00
12:45 AM,73.4,59.0,61,30.01,-9999.0,SW,1.2,-,N/A,,Clear,230,2013-06-17 22:45:00
1:15 AM,73.4,60.8,65,30.01,-9999.0,Calm,Calm,-,N/A,,Clear,0,2013-06-17 23:15:00
1:45 AM,71.6,60.8,69,30.01,-9999.0,Calm,Calm,-,N/A,,Clear,0,2013-06-17 23:45:00
2:15 AM,71.6,60.8,69,30.01,-9999.0,Calm,Calm,-,N/A,,Clear,0,2013-06-18 00:15:00
2:45 AM,69.8,59.0,68,30.01,-9999.0,Calm,Calm,-,N/A,,Clear,0,2013-06-18 00:45:00
3:15 AM,69.8,59.0,68,29.98,-9999.0,Calm,Calm,-,N/A,,Clear,0,2013-06-18 01:15:00
3:45 AM,69.8,60.8,73,29.98,-9999.0,Calm,Calm,-,N/A,,Clear,0,2013-06-18 01:45:00
4:15 AM,69.8,62.6,78,29.98,-9999.0,Calm,Calm,-,N/A,,Clear,0,2013-06-18 02:15:00
4:45 AM,69.8,62.6,78,29.98,-9999.0,Calm,Calm,-,N/A,,Clear,0,2013-06-18 02:45:00
5:15 AM,69.8,62.6,78,29.98,-9999.0,Calm,Calm,-,N/A,,Clear,0,2013-06-18 03:15:00
5:45 AM,71.6,64.4,78,29.98,-9999.0,Calm,Calm,-,N/A,,Clear,0,2013-06-18 03:45:00
6:15 AM,71.6,64.4,78,29.98,-9999.0,ENE,1.2,-,N/A,,Clear,70,2013-06-18 04:15:00
6:45 AM,73.4,66.2,78,29.98,-9999.0,NNE,2.3,-,N/A,,Clear,30,2013-06-18 04:45:00
7:15 AM,73.4,66.2,78,29.98,-9999.0,NE,3.5,-,N/A,,Clear,40,2013-06-18 05:15:00
7:45 AM,77.0,69.8,78,29.98,-9999.0,NNE,1.2,-,N/A,,Clear,30,2013-06-18 05:45:00
8:15 AM,78.8,68.0,69,29.98,-9999.0,North,2.3,-,N/A,,Clear,360,2013-06-18 06:15:00
8:45 AM,78.8,68.0,69,29.98,-9999.0,NNW,1.2,-,N/A,,Clear,330,2013-06-18 06:45:00
9:15 AM,82.4,69.8,66,29.98,-9999.0,NW,2.3,-,N/A,,Clear,310,2013-06-18 07:15:00
9:45 AM,84.2,69.8,62,29.98,-9999.0,SW,1.2,-,N/A,,Clear,220,2013-06-18 07:45:00
10:15 AM,86.0,71.6,62,29.98,-9999.0,NW,1.2,-,N/A,,Clear,310,2013-06-18 08:15:00
10:45 AM,89.6,73.4,59,29.98,-9999.0,SW,3.5,-,N/A,,Clear,220,2013-06-18 08:45:00
11:15 AM,87.8,71.6,58,29.98,6.2,South,8.1,-,N/A,,Partly Cloudy,180,2013-06-18 09:15:00
11:45 AM,89.6,71.6,55,29.98,6.2,South,9.2,-,N/A,,Partly Cloudy,190,2013-06-18 09:45:00
12:15 PM,89.6,68.0,49,29.98,6.2,South,9.2,-,N/A,,Partly Cloudy,180,2013-06-18 10:15:00
12:45 PM,91.4,66.2,43,29.98,6.2,South,10.4,-,N/A,,Partly Cloudy,180,2013-06-18 10:45:00
1:15 PM,89.6,66.2,46,29.98,6.2,South,10.4,-,N/A,,Partly Cloudy,190,2013-06-18 11:15:00
1:45 PM,91.4,68.0,46,29.98,6.2,SSW,10.4,-,N/A,,Partly Cloudy,200,2013-06-18 11:45:00
2:15 PM,91.4,66.2,43,29.98,6.2,SSW,9.2,-,N/A,,Partly Cloudy,200,2013-06-18 12:15:00
2:45 PM,91.4,64.4,41,29.98,6.2,South,11.5,-,N/A,,Partly Cloudy,190,2013-06-18 12:45:00
3:15 PM,89.6,64.4,43,29.98,6.2,SSW,11.5,-,N/A,,Partly Cloudy,210,2013-06-18 13:15:00
3:45 PM,89.6,66.2,46,29.98,6.2,SSW,11.5,-,N/A,,Partly Cloudy,210,2013-06-18 13:45:00
4:15 PM,89.6,66.2,46,29.98,6.2,SSW,9.2,-,N/A,,Partly Cloudy,210,2013-06-18 14:15:00
4:45 PM,87.8,62.6,43,29.98,6.2,SW,11.5,-,N/A,,Partly Cloudy,220,2013-06-18 14:45:00
5:15 PM,87.8,62.6,43,29.98,6.2,SW,8.1,-,N/A,,Partly Cloudy,220,2013-06-18 15:15:00
5:45 PM,87.8,62.6,43,29.98,6.2,SSW,8.1,-,N/A,,Partly Cloudy,210,2013-06-18 15:45:00
6:15 PM,86.0,66.2,51,29.98,6.2,WSW,8.1,-,N/A,,Partly Cloudy,240,2013-06-18 16:15:00
6:45 PM,86.0,66.2,51,29.98,6.2,SW,6.9,-,N/A,,Partly Cloudy,230,2013-06-18 16:45:00
7:15 PM,86.0,64.4,48,29.98,6.2,SSW,4.6,-,N/A,,Partly Cloudy,210,2013-06-18 17:15:00
7:45 PM,84.2,64.4,51,29.98,-9999.0,WSW,5.8,-,N/A,,Clear,240,2013-06-18 17:45:00
8:15 PM,82.4,64.4,54,29.98,-9999.0,SW,3.5,-,N/A,,Clear,230,2013-06-18 18:15:00
8:45 PM,82.4,64.4,54,29.98,-9999.0,SW,2.3,-,N/A,,Clear,220,2013-06-18 18:45:00
9:15 PM,80.6,64.4,58,29.98,-9999.0,SW,3.5,-,N/A,,Clear,220,2013-06-18 19:15:00
9:45 PM,78.8,64.4,61,30.01,-9999.0,ENE,2.3,-,N/A,,Clear,60,2013-06-18 19:45:00
10:15 PM,78.8,66.2,65,30.01,-9999.0,ENE,2.3,-,N/A,,Clear,70,2013-06-18 20:15:00
10:45 PM,77.0,64.4,65,30.01,-9999.0,East,2.3,-,N/A,,Clear,80,2013-06-18 20:45:00
11:15 PM,77.0,66.2,69,30.01,-9999.0,Calm,Calm,-,N/A,,Clear,0,2013-06-18 21:15:00
11:45 PM,77.0,66.2,69,30.01,-9999.0,ESE,2.3,-,N/A,,Clear,110,2013-06-18 21:45:00